sensor_id;sensor_type;location;lat;lon;timestamp;P1;durP1;ratioP1;P2;durP2;ratioP2
9270;SDS011;4673;53.458;9.940;2022-12-18T00:07:44;6.57;;;6.57;;
9270;SDS011;4673;53.458;9.940;2022-12-18T00:15:14;7.30;;;7.30;;
9270;SDS011;4673;53.458;9.940;2022-12-18T00:18:07;7.50;;;7.50;;
9270;SDS011;4673;53.458;9.940;2022-12-18T00:21:21;8.53;;;8.43;;
9270;SDS011;4673;53.458;9.940;2022-12-18T00:34:47;7.20;;;7.20;;
9270;SDS011;4673;53.458;9.940;2022-12-18T00:37:52;9.03;;;9.03;;
9270;SDS011;4673;53.458;9.940;2022-12-18T00:49:58;8.83;;;8.83;;
9270;SDS011;4673;53.458;9.940;2022-12-18T00:52:51;8.13;;;8.13;;
9270;SDS011;4673;53.458;9.940;2022-12-18T00:55:49;7.93;;;7.93;;
9270;SDS011;4673;53.458;9.940;2022-12-18T01:12:19;6.57;;;6.57;;
9270;SDS011;4673;53.458;9.940;2022-12-18T01:15:24;7.53;;;7.53;;
9270;SDS011;4673;53.458;9.940;2022-12-18T01:17:51;7.30;;;7.30;;
9270;SDS011;4673;53.458;9.940;2022-12-18T01:20:17;7.33;;;7.33;;
9270;SDS011;4673;53.458;9.940;2022-12-18T01:22:43;6.80;;;6.80;;
9270;SDS011;4673;53.458;9.940;2022-12-18T01:25:09;7.13;;;7.13;;
9270;SDS011;4673;53.458;9.940;2022-12-18T01:27:34;7.37;;;7.33;;
9270;SDS011;4673;53.458;9.940;2022-12-18T01:30:00;8.87;;;8.87;;
9270;SDS011;4673;53.458;9.940;2022-12-18T01:32:26;7.83;;;7.83;;
9270;SDS011;4673;53.458;9.940;2022-12-18T01:34:54;7.90;;;7.90;;
9270;SDS011;4673;53.458;9.940;2022-12-18T01:37:19;8.63;;;8.63;;
9270;SDS011;4673;53.458;9.940;2022-12-18T01:39:45;7.20;;;7.20;;
9270;SDS011;4673;53.458;9.940;2022-12-18T01:42:11;8.63;;;8.60;;
9270;SDS011;4673;53.458;9.940;2022-12-18T01:44:53;7.60;;;7.60;;
9270;SDS011;4673;53.458;9.940;2022-12-18T01:52:50;8.27;;;8.27;;
9270;SDS011;4673;53.458;9.940;2022-12-18T01:55:20;8.23;;;8.23;;
9270;SDS011;4673;53.458;9.940;2022-12-18T01:57:49;7.93;;;7.93;;
9270;SDS011;4673;53.458;9.940;2022-12-18T02:00:18;8.40;;;8.40;;
9270;SDS011;4673;53.458;9.940;2022-12-18T02:02:46;9.40;;;9.40;;
9270;SDS011;4673;53.458;9.940;2022-12-18T02:05:17;8.73;;;8.73;;
9270;SDS011;4673;53.458;9.940;2022-12-18T02:10:20;7.60;;;7.60;;
9270;SDS011;4673;53.458;9.940;2022-12-18T02:12:57;7.43;;;7.43;;
9270;SDS011;4673;53.458;9.940;2022-12-18T02:15:48;6.33;;;6.33;;
9270;SDS011;4673;53.458;9.940;2022-12-18T02:18:19;7.17;;;7.17;;
9270;SDS011;4673;53.458;9.940;2022-12-18T02:21:01;6.90;;;6.90;;
9270;SDS011;4673;53.458;9.940;2022-12-18T02:26:48;6.03;;;6.03;;
9270;SDS011;4673;53.458;9.940;2022-12-18T02:32:08;6.73;;;6.73;;
9270;SDS011;4673;53.458;9.940;2022-12-18T02:34:39;6.43;;;6.43;;
9270;SDS011;4673;53.458;9.940;2022-12-18T02:37:06;5.63;;;5.63;;
9270;SDS011;4673;53.458;9.940;2022-12-18T02:39:36;7.17;;;7.17;;
9270;SDS011;4673;53.458;9.940;2022-12-18T02:42:03;5.43;;;5.43;;
9270;SDS011;4673;53.458;9.940;2022-12-18T02:44:33;6.43;;;6.43;;
9270;SDS011;4673;53.458;9.940;2022-12-18T02:47:13;6.40;;;6.40;;
9270;SDS011;4673;53.458;9.940;2022-12-18T02:55:15;6.83;;;6.83;;
9270;SDS011;4673;53.458;9.940;2022-12-18T03:00:24;6.00;;;6.00;;
9270;SDS011;4673;53.458;9.940;2022-12-18T03:05:40;7.67;;;7.67;;
9270;SDS011;4673;53.458;9.940;2022-12-18T03:08:22;6.73;;;6.73;;
9270;SDS011;4673;53.458;9.940;2022-12-18T03:11:03;7.20;;;7.20;;
9270;SDS011;4673;53.458;9.940;2022-12-18T03:13:51;7.00;;;7.00;;
9270;SDS011;4673;53.458;9.940;2022-12-18T03:16:25;6.40;;;6.40;;
9270;SDS011;4673;53.458;9.940;2022-12-18T03:18:58;6.47;;;6.47;;
9270;SDS011;4673;53.458;9.940;2022-12-18T03:21:28;7.10;;;7.10;;
9270;SDS011;4673;53.458;9.940;2022-12-18T03:24:01;6.53;;;6.53;;
9270;SDS011;4673;53.458;9.940;2022-12-18T03:26:32;6.73;;;6.73;;
9270;SDS011;4673;53.458;9.940;2022-12-18T03:29:02;7.07;;;7.07;;
9270;SDS011;4673;53.458;9.940;2022-12-18T03:31:31;9.13;;;9.10;;
9270;SDS011;4673;53.458;9.940;2022-12-18T03:33:58;9.07;;;9.07;;
9270;SDS011;4673;53.458;9.940;2022-12-18T03:36:27;7.57;;;7.57;;
9270;SDS011;4673;53.458;9.940;2022-12-18T03:38:53;8.47;;;8.47;;
9270;SDS011;4673;53.458;9.940;2022-12-18T03:44:13;7.73;;;7.73;;
9270;SDS011;4673;53.458;9.940;2022-12-18T03:46:47;8.33;;;8.33;;
9270;SDS011;4673;53.458;9.940;2022-12-18T03:49:29;8.77;;;8.77;;
9270;SDS011;4673;53.458;9.940;2022-12-18T03:52:21;8.07;;;8.07;;
9270;SDS011;4673;53.458;9.940;2022-12-18T03:54:49;7.77;;;7.77;;
9270;SDS011;4673;53.458;9.940;2022-12-18T03:57:18;8.70;;;8.70;;
9270;SDS011;4673;53.458;9.940;2022-12-18T03:59:47;8.07;;;8.07;;
9270;SDS011;4673;53.458;9.940;2022-12-18T04:02:16;7.63;;;7.63;;
9270;SDS011;4673;53.458;9.940;2022-12-18T04:04:43;8.67;;;8.60;;
9270;SDS011;4673;53.458;9.940;2022-12-18T04:07:12;8.80;;;8.80;;
9270;SDS011;4673;53.458;9.940;2022-12-18T04:09:39;7.17;;;7.17;;
9270;SDS011;4673;53.458;9.940;2022-12-18T04:12:08;7.23;;;7.23;;
9270;SDS011;4673;53.458;9.940;2022-12-18T04:14:33;8.13;;;8.13;;
9270;SDS011;4673;53.458;9.940;2022-12-18T04:17:00;7.20;;;7.20;;
9270;SDS011;4673;53.458;9.940;2022-12-18T04:19:27;7.43;;;7.43;;
9270;SDS011;4673;53.458;9.940;2022-12-18T04:21:53;7.37;;;7.37;;
9270;SDS011;4673;53.458;9.940;2022-12-18T04:24:19;7.97;;;7.97;;
9270;SDS011;4673;53.458;9.940;2022-12-18T04:26:44;7.47;;;7.47;;
9270;SDS011;4673;53.458;9.940;2022-12-18T04:29:10;7.00;;;7.00;;
9270;SDS011;4673;53.458;9.940;2022-12-18T04:31:36;7.27;;;7.27;;
9270;SDS011;4673;53.458;9.940;2022-12-18T04:34:01;7.47;;;7.47;;
9270;SDS011;4673;53.458;9.940;2022-12-18T04:36:28;7.23;;;7.23;;
9270;SDS011;4673;53.458;9.940;2022-12-18T04:38:53;7.20;;;7.20;;
9270;SDS011;4673;53.458;9.940;2022-12-18T04:41:19;7.37;;;7.37;;
9270;SDS011;4673;53.458;9.940;2022-12-18T04:43:45;8.23;;;8.23;;
9270;SDS011;4673;53.458;9.940;2022-12-18T04:46:10;6.80;;;6.80;;
9270;SDS011;4673;53.458;9.940;2022-12-18T04:48:36;7.37;;;7.37;;
9270;SDS011;4673;53.458;9.940;2022-12-18T04:51:02;7.63;;;7.63;;
9270;SDS011;4673;53.458;9.940;2022-12-18T04:53:29;8.30;;;8.30;;
9270;SDS011;4673;53.458;9.940;2022-12-18T04:56:05;7.93;;;7.93;;
9270;SDS011;4673;53.458;9.940;2022-12-18T04:58:36;7.30;;;7.30;;
9270;SDS011;4673;53.458;9.940;2022-12-18T05:01:02;6.30;;;6.30;;
9270;SDS011;4673;53.458;9.940;2022-12-18T05:03:28;6.90;;;6.90;;
9270;SDS011;4673;53.458;9.940;2022-12-18T05:05:54;7.57;;;7.57;;
9270;SDS011;4673;53.458;9.940;2022-12-18T05:08:19;6.73;;;6.73;;
9270;SDS011;4673;53.458;9.940;2022-12-18T05:10:45;7.80;;;7.80;;
9270;SDS011;4673;53.458;9.940;2022-12-18T05:13:11;8.27;;;8.27;;
9270;SDS011;4673;53.458;9.940;2022-12-18T05:15:36;7.50;;;7.50;;
9270;SDS011;4673;53.458;9.940;2022-12-18T05:18:02;8.17;;;8.17;;
9270;SDS011;4673;53.458;9.940;2022-12-18T05:20:29;7.03;;;7.03;;
9270;SDS011;4673;53.458;9.940;2022-12-18T05:22:54;7.60;;;7.60;;
9270;SDS011;4673;53.458;9.940;2022-12-18T05:25:21;7.77;;;7.77;;
9270;SDS011;4673;53.458;9.940;2022-12-18T05:27:47;8.10;;;8.10;;
9270;SDS011;4673;53.458;9.940;2022-12-18T05:30:13;7.23;;;7.23;;
9270;SDS011;4673;53.458;9.940;2022-12-18T05:32:40;7.70;;;7.70;;
9270;SDS011;4673;53.458;9.940;2022-12-18T05:35:06;7.63;;;7.63;;
9270;SDS011;4673;53.458;9.940;2022-12-18T05:37:33;7.63;;;7.63;;
9270;SDS011;4673;53.458;9.940;2022-12-18T05:40:00;7.90;;;7.90;;
9270;SDS011;4673;53.458;9.940;2022-12-18T05:42:26;7.33;;;7.33;;
9270;SDS011;4673;53.458;9.940;2022-12-18T05:44:51;7.50;;;7.50;;
9270;SDS011;4673;53.458;9.940;2022-12-18T05:47:17;8.33;;;8.33;;
9270;SDS011;4673;53.458;9.940;2022-12-18T05:49:42;8.60;;;8.60;;
9270;SDS011;4673;53.458;9.940;2022-12-18T05:52:08;7.50;;;7.50;;
9270;SDS011;4673;53.458;9.940;2022-12-18T05:54:34;8.23;;;8.23;;
9270;SDS011;4673;53.458;9.940;2022-12-18T05:57:00;8.30;;;8.30;;
9270;SDS011;4673;53.458;9.940;2022-12-18T05:59:25;7.67;;;7.67;;
9270;SDS011;4673;53.458;9.940;2022-12-18T06:01:51;8.10;;;8.10;;
9270;SDS011;4673;53.458;9.940;2022-12-18T06:04:17;7.87;;;7.87;;
9270;SDS011;4673;53.458;9.940;2022-12-18T06:06:42;7.23;;;7.23;;
9270;SDS011;4673;53.458;9.940;2022-12-18T06:09:08;7.30;;;7.30;;
9270;SDS011;4673;53.458;9.940;2022-12-18T06:11:35;7.63;;;7.63;;
9270;SDS011;4673;53.458;9.940;2022-12-18T06:14:02;7.97;;;7.97;;
9270;SDS011;4673;53.458;9.940;2022-12-18T06:16:29;7.13;;;7.13;;
9270;SDS011;4673;53.458;9.940;2022-12-18T06:18:56;7.43;;;7.43;;
9270;SDS011;4673;53.458;9.940;2022-12-18T06:21:22;7.40;;;7.40;;
9270;SDS011;4673;53.458;9.940;2022-12-18T06:23:48;8.20;;;8.20;;
9270;SDS011;4673;53.458;9.940;2022-12-18T06:26:14;7.80;;;7.80;;
9270;SDS011;4673;53.458;9.940;2022-12-18T06:28:40;8.27;;;8.27;;
9270;SDS011;4673;53.458;9.940;2022-12-18T06:31:06;7.60;;;7.60;;
9270;SDS011;4673;53.458;9.940;2022-12-18T06:33:32;7.57;;;7.57;;
9270;SDS011;4673;53.458;9.940;2022-12-18T06:35:59;7.47;;;7.47;;
9270;SDS011;4673;53.458;9.940;2022-12-18T06:38:33;6.93;;;6.93;;
9270;SDS011;4673;53.458;9.940;2022-12-18T06:41:00;8.77;;;8.77;;
9270;SDS011;4673;53.458;9.940;2022-12-18T06:43:30;6.40;;;6.40;;
9270;SDS011;4673;53.458;9.940;2022-12-18T06:45:59;7.43;;;7.43;;
9270;SDS011;4673;53.458;9.940;2022-12-18T06:48:26;7.37;;;7.37;;
9270;SDS011;4673;53.458;9.940;2022-12-18T06:50:52;7.43;;;7.43;;
9270;SDS011;4673;53.458;9.940;2022-12-18T06:53:17;6.87;;;6.87;;
9270;SDS011;4673;53.458;9.940;2022-12-18T06:55:43;7.57;;;7.57;;
9270;SDS011;4673;53.458;9.940;2022-12-18T06:58:08;6.63;;;6.63;;
9270;SDS011;4673;53.458;9.940;2022-12-18T07:00:34;6.77;;;6.77;;
9270;SDS011;4673;53.458;9.940;2022-12-18T07:03:00;6.83;;;6.83;;
9270;SDS011;4673;53.458;9.940;2022-12-18T07:05:26;7.00;;;7.00;;
9270;SDS011;4673;53.458;9.940;2022-12-18T07:07:51;8.70;;;8.70;;
9270;SDS011;4673;53.458;9.940;2022-12-18T07:10:17;7.67;;;7.67;;
9270;SDS011;4673;53.458;9.940;2022-12-18T07:12:43;7.53;;;7.53;;
9270;SDS011;4673;53.458;9.940;2022-12-18T07:15:08;8.23;;;8.23;;
9270;SDS011;4673;53.458;9.940;2022-12-18T07:17:34;7.47;;;7.47;;
9270;SDS011;4673;53.458;9.940;2022-12-18T07:20:00;8.13;;;8.13;;
9270;SDS011;4673;53.458;9.940;2022-12-18T07:22:26;7.40;;;7.40;;
9270;SDS011;4673;53.458;9.940;2022-12-18T07:24:52;6.80;;;6.80;;
9270;SDS011;4673;53.458;9.940;2022-12-18T07:27:17;6.73;;;6.73;;
9270;SDS011;4673;53.458;9.940;2022-12-18T07:29:43;7.83;;;7.83;;
9270;SDS011;4673;53.458;9.940;2022-12-18T07:32:09;7.13;;;7.13;;
9270;SDS011;4673;53.458;9.940;2022-12-18T07:34:34;6.87;;;6.87;;
9270;SDS011;4673;53.458;9.940;2022-12-18T07:37:00;8.03;;;8.03;;
9270;SDS011;4673;53.458;9.940;2022-12-18T07:39:26;6.03;;;6.03;;
9270;SDS011;4673;53.458;9.940;2022-12-18T07:41:51;7.27;;;7.27;;
9270;SDS011;4673;53.458;9.940;2022-12-18T07:44:36;7.27;;;7.27;;
9270;SDS011;4673;53.458;9.940;2022-12-18T07:47:02;6.47;;;6.47;;
9270;SDS011;4673;53.458;9.940;2022-12-18T07:49:28;6.50;;;6.50;;
9270;SDS011;4673;53.458;9.940;2022-12-18T07:51:54;8.00;;;8.00;;
9270;SDS011;4673;53.458;9.940;2022-12-18T07:54:21;6.33;;;6.33;;
9270;SDS011;4673;53.458;9.940;2022-12-18T07:56:47;6.93;;;6.93;;
9270;SDS011;4673;53.458;9.940;2022-12-18T07:59:13;7.30;;;7.30;;
9270;SDS011;4673;53.458;9.940;2022-12-18T08:01:39;7.90;;;7.90;;
9270;SDS011;4673;53.458;9.940;2022-12-18T08:04:04;8.00;;;8.00;;
9270;SDS011;4673;53.458;9.940;2022-12-18T08:06:30;6.70;;;6.70;;
9270;SDS011;4673;53.458;9.940;2022-12-18T08:08:56;8.17;;;8.17;;
9270;SDS011;4673;53.458;9.940;2022-12-18T08:11:22;9.13;;;9.13;;
9270;SDS011;4673;53.458;9.940;2022-12-18T08:13:49;8.53;;;8.53;;
9270;SDS011;4673;53.458;9.940;2022-12-18T08:16:16;9.03;;;8.97;;
9270;SDS011;4673;53.458;9.940;2022-12-18T08:18:42;8.90;;;8.90;;
9270;SDS011;4673;53.458;9.940;2022-12-18T08:21:08;8.60;;;8.60;;
9270;SDS011;4673;53.458;9.940;2022-12-18T08:23:38;8.13;;;8.13;;
9270;SDS011;4673;53.458;9.940;2022-12-18T08:26:04;8.73;;;8.73;;
9270;SDS011;4673;53.458;9.940;2022-12-18T08:28:31;8.73;;;8.63;;
9270;SDS011;4673;53.458;9.940;2022-12-18T08:30:57;9.47;;;9.43;;
9270;SDS011;4673;53.458;9.940;2022-12-18T08:33:22;8.27;;;8.27;;
9270;SDS011;4673;53.458;9.940;2022-12-18T08:35:48;9.63;;;9.63;;
9270;SDS011;4673;53.458;9.940;2022-12-18T08:38:14;8.70;;;8.70;;
9270;SDS011;4673;53.458;9.940;2022-12-18T08:40:39;8.93;;;8.93;;
9270;SDS011;4673;53.458;9.940;2022-12-18T08:43:05;8.63;;;8.60;;
9270;SDS011;4673;53.458;9.940;2022-12-18T08:45:51;8.37;;;8.37;;
9270;SDS011;4673;53.458;9.940;2022-12-18T08:48:16;10.00;;;10.00;;
9270;SDS011;4673;53.458;9.940;2022-12-18T08:50:42;10.50;;;10.40;;
9270;SDS011;4673;53.458;9.940;2022-12-18T08:53:08;9.43;;;9.43;;
9270;SDS011;4673;53.458;9.940;2022-12-18T08:55:34;8.17;;;8.17;;
9270;SDS011;4673;53.458;9.940;2022-12-18T08:57:59;9.13;;;9.13;;
9270;SDS011;4673;53.458;9.940;2022-12-18T09:00:25;8.00;;;8.00;;
9270;SDS011;4673;53.458;9.940;2022-12-18T09:02:51;9.83;;;9.83;;
9270;SDS011;4673;53.458;9.940;2022-12-18T09:05:16;9.93;;;9.87;;
9270;SDS011;4673;53.458;9.940;2022-12-18T09:07:42;9.93;;;9.93;;
9270;SDS011;4673;53.458;9.940;2022-12-18T09:10:08;10.40;;;10.37;;
9270;SDS011;4673;53.458;9.940;2022-12-18T09:12:33;9.93;;;9.93;;
9270;SDS011;4673;53.458;9.940;2022-12-18T09:14:59;9.73;;;9.73;;
9270;SDS011;4673;53.458;9.940;2022-12-18T09:17:25;9.63;;;9.63;;
9270;SDS011;4673;53.458;9.940;2022-12-18T09:19:51;9.63;;;9.57;;
9270;SDS011;4673;53.458;9.940;2022-12-18T09:22:16;10.93;;;10.83;;
9270;SDS011;4673;53.458;9.940;2022-12-18T09:24:42;9.30;;;9.30;;
9270;SDS011;4673;53.458;9.940;2022-12-18T09:27:07;10.33;;;10.33;;
9270;SDS011;4673;53.458;9.940;2022-12-18T09:29:33;9.73;;;9.73;;
9270;SDS011;4673;53.458;9.940;2022-12-18T09:31:59;9.47;;;9.43;;
9270;SDS011;4673;53.458;9.940;2022-12-18T09:34:24;9.57;;;9.57;;
9270;SDS011;4673;53.458;9.940;2022-12-18T09:36:50;8.50;;;8.50;;
9270;SDS011;4673;53.458;9.940;2022-12-18T09:39:16;7.93;;;7.93;;
9270;SDS011;4673;53.458;9.940;2022-12-18T09:44:29;8.43;;;8.43;;
9270;SDS011;4673;53.458;9.940;2022-12-18T09:49:58;8.30;;;8.30;;
9270;SDS011;4673;53.458;9.940;2022-12-18T09:52:43;8.97;;;8.97;;
9270;SDS011;4673;53.458;9.940;2022-12-18T09:55:18;8.83;;;8.83;;
9270;SDS011;4673;53.458;9.940;2022-12-18T09:57:51;8.70;;;8.70;;
9270;SDS011;4673;53.458;9.940;2022-12-18T10:00:22;7.80;;;7.80;;
9270;SDS011;4673;53.458;9.940;2022-12-18T10:02:50;8.33;;;8.33;;
9270;SDS011;4673;53.458;9.940;2022-12-18T10:05:24;8.97;;;8.97;;
9270;SDS011;4673;53.458;9.940;2022-12-18T10:08:06;7.87;;;7.77;;
9270;SDS011;4673;53.458;9.940;2022-12-18T10:10:52;8.13;;;8.13;;
9270;SDS011;4673;53.458;9.940;2022-12-18T10:15:50;8.40;;;8.40;;
9270;SDS011;4673;53.458;9.940;2022-12-18T10:21:21;8.20;;;8.20;;
9270;SDS011;4673;53.458;9.940;2022-12-18T10:24:20;7.33;;;7.33;;
9270;SDS011;4673;53.458;9.940;2022-12-18T10:27:24;7.40;;;7.40;;
9270;SDS011;4673;53.458;9.940;2022-12-18T10:29:50;6.93;;;6.93;;
9270;SDS011;4673;53.458;9.940;2022-12-18T10:32:17;7.87;;;7.87;;
9270;SDS011;4673;53.458;9.940;2022-12-18T10:34:54;5.87;;;5.87;;
9270;SDS011;4673;53.458;9.940;2022-12-18T10:37:23;6.20;;;6.20;;
9270;SDS011;4673;53.458;9.940;2022-12-18T10:42:35;5.97;;;5.97;;
9270;SDS011;4673;53.458;9.940;2022-12-18T10:45:02;5.80;;;5.80;;
9270;SDS011;4673;53.458;9.940;2022-12-18T10:47:49;6.90;;;6.90;;
9270;SDS011;4673;53.458;9.940;2022-12-18T10:52:57;6.17;;;6.17;;
9270;SDS011;4673;53.458;9.940;2022-12-18T10:55:27;6.03;;;6.03;;
9270;SDS011;4673;53.458;9.940;2022-12-18T10:58:21;5.97;;;5.97;;
9270;SDS011;4673;53.458;9.940;2022-12-18T11:01:14;6.10;;;6.10;;
9270;SDS011;4673;53.458;9.940;2022-12-18T11:03:42;5.07;;;5.07;;
9270;SDS011;4673;53.458;9.940;2022-12-18T11:06:23;5.60;;;5.60;;
9270;SDS011;4673;53.458;9.940;2022-12-18T11:09:03;5.10;;;5.10;;
9270;SDS011;4673;53.458;9.940;2022-12-18T11:11:54;5.93;;;5.93;;
9270;SDS011;4673;53.458;9.940;2022-12-18T11:14:26;6.57;;;6.57;;
9270;SDS011;4673;53.458;9.940;2022-12-18T11:16:54;5.73;;;5.73;;
9270;SDS011;4673;53.458;9.940;2022-12-18T11:19:32;6.10;;;6.10;;
9270;SDS011;4673;53.458;9.940;2022-12-18T11:22:24;5.70;;;5.70;;
9270;SDS011;4673;53.458;9.940;2022-12-18T11:27:26;6.13;;;6.13;;
9270;SDS011;4673;53.458;9.940;2022-12-18T11:30:06;6.03;;;6.03;;
9270;SDS011;4673;53.458;9.940;2022-12-18T11:32:46;5.77;;;5.77;;
9270;SDS011;4673;53.458;9.940;2022-12-18T11:35:56;6.00;;;6.00;;
9270;SDS011;4673;53.458;9.940;2022-12-18T11:38:21;5.93;;;5.93;;
9270;SDS011;4673;53.458;9.940;2022-12-18T11:40:56;5.87;;;5.87;;
9270;SDS011;4673;53.458;9.940;2022-12-18T11:43:33;5.13;;;5.13;;
9270;SDS011;4673;53.458;9.940;2022-12-18T11:48:47;5.23;;;5.23;;
9270;SDS011;4673;53.458;9.940;2022-12-18T11:51:27;5.60;;;5.60;;
9270;SDS011;4673;53.458;9.940;2022-12-18T11:53:58;5.90;;;5.90;;
9270;SDS011;4673;53.458;9.940;2022-12-18T12:07:57;4.30;;;4.30;;
9270;SDS011;4673;53.458;9.940;2022-12-18T12:16:33;4.40;;;4.40;;
9270;SDS011;4673;53.458;9.940;2022-12-18T12:21:42;8.27;;;8.27;;
9270;SDS011;4673;53.458;9.940;2022-12-18T12:35:30;9.20;;;9.20;;
9270;SDS011;4673;53.458;9.940;2022-12-18T12:38:22;9.17;;;9.17;;
9270;SDS011;4673;53.458;9.940;2022-12-18T12:40:59;8.97;;;8.97;;
9270;SDS011;4673;53.458;9.940;2022-12-18T12:43:33;8.77;;;8.77;;
9270;SDS011;4673;53.458;9.940;2022-12-18T12:46:08;8.53;;;8.53;;
9270;SDS011;4673;53.458;9.940;2022-12-18T12:48:37;9.00;;;9.00;;
9270;SDS011;4673;53.458;9.940;2022-12-18T12:51:09;8.90;;;8.90;;
9270;SDS011;4673;53.458;9.940;2022-12-18T12:53:44;9.97;;;9.93;;
9270;SDS011;4673;53.458;9.940;2022-12-18T12:56:11;10.40;;;10.30;;
9270;SDS011;4673;53.458;9.940;2022-12-18T13:04:40;11.20;;;11.20;;
9270;SDS011;4673;53.458;9.940;2022-12-18T13:15:28;11.77;;;11.67;;
9270;SDS011;4673;53.458;9.940;2022-12-18T13:25:49;11.03;;;10.93;;
9270;SDS011;4673;53.458;9.940;2022-12-18T13:28:24;11.43;;;11.33;;
9270;SDS011;4673;53.458;9.940;2022-12-18T13:31:11;11.80;;;11.70;;
9270;SDS011;4673;53.458;9.940;2022-12-18T13:36:50;12.53;;;12.43;;
9270;SDS011;4673;53.458;9.940;2022-12-18T13:41:50;13.53;;;13.43;;
9270;SDS011;4673;53.458;9.940;2022-12-18T13:47:00;12.90;;;12.80;;
9270;SDS011;4673;53.458;9.940;2022-12-18T13:52:18;12.90;;;12.80;;
9270;SDS011;4673;53.458;9.940;2022-12-18T13:54:55;13.83;;;13.73;;
9270;SDS011;4673;53.458;9.940;2022-12-18T13:57:27;13.47;;;13.37;;
9270;SDS011;4673;53.458;9.940;2022-12-18T13:59:54;14.47;;;14.37;;
9270;SDS011;4673;53.458;9.940;2022-12-18T14:02:25;14.50;;;14.40;;
9270;SDS011;4673;53.458;9.940;2022-12-18T14:04:53;14.93;;;14.83;;
9270;SDS011;4673;53.458;9.940;2022-12-18T14:07:24;15.20;;;15.10;;
9270;SDS011;4673;53.458;9.940;2022-12-18T14:09:58;14.03;;;13.93;;
9270;SDS011;4673;53.458;9.940;2022-12-18T14:12:29;14.67;;;14.57;;
9270;SDS011;4673;53.458;9.940;2022-12-18T14:17:50;13.03;;;12.93;;
9270;SDS011;4673;53.458;9.940;2022-12-18T14:20:17;13.60;;;13.50;;
9270;SDS011;4673;53.458;9.940;2022-12-18T14:22:44;14.73;;;14.53;;
9270;SDS011;4673;53.458;9.940;2022-12-18T14:27:37;15.47;;;15.37;;
9270;SDS011;4673;53.458;9.940;2022-12-18T14:33:05;14.30;;;14.20;;
9270;SDS011;4673;53.458;9.940;2022-12-18T14:35:32;15.00;;;14.90;;
9270;SDS011;4673;53.458;9.940;2022-12-18T14:38:18;14.20;;;14.10;;
9270;SDS011;4673;53.458;9.940;2022-12-18T14:40:47;13.43;;;13.33;;
9270;SDS011;4673;53.458;9.940;2022-12-18T14:43:17;13.23;;;13.13;;
9270;SDS011;4673;53.458;9.940;2022-12-18T14:45:42;14.20;;;14.10;;
9270;SDS011;4673;53.458;9.940;2022-12-18T14:48:14;12.80;;;12.70;;
9270;SDS011;4673;53.458;9.940;2022-12-18T14:50:42;16.00;;;15.90;;
9270;SDS011;4673;53.458;9.940;2022-12-18T14:53:19;15.83;;;15.73;;
9270;SDS011;4673;53.458;9.940;2022-12-18T14:55:48;16.70;;;16.60;;
9270;SDS011;4673;53.458;9.940;2022-12-18T14:58:15;16.33;;;16.23;;
9270;SDS011;4673;53.458;9.940;2022-12-18T15:00:42;14.90;;;14.80;;
9270;SDS011;4673;53.458;9.940;2022-12-18T15:03:08;17.50;;;17.30;;
9270;SDS011;4673;53.458;9.940;2022-12-18T15:05:35;17.17;;;17.07;;
9270;SDS011;4673;53.458;9.940;2022-12-18T15:08:01;16.50;;;16.40;;
9270;SDS011;4673;53.458;9.940;2022-12-18T15:10:34;15.90;;;15.80;;
9270;SDS011;4673;53.458;9.940;2022-12-18T15:17:58;18.97;;;18.80;;
9270;SDS011;4673;53.458;9.940;2022-12-18T15:20:24;18.90;;;18.70;;
9270;SDS011;4673;53.458;9.940;2022-12-18T15:22:50;18.10;;;17.90;;
9270;SDS011;4673;53.458;9.940;2022-12-18T15:25:36;17.50;;;17.30;;
9270;SDS011;4673;53.458;9.940;2022-12-18T15:28:03;17.07;;;16.97;;
9270;SDS011;4673;53.458;9.940;2022-12-18T15:30:40;17.00;;;16.80;;
9270;SDS011;4673;53.458;9.940;2022-12-18T15:36:18;17.43;;;17.23;;
9270;SDS011;4673;53.458;9.940;2022-12-18T15:38:48;19.80;;;19.60;;
9270;SDS011;4673;53.458;9.940;2022-12-18T15:41:15;19.83;;;19.63;;
9270;SDS011;4673;53.458;9.940;2022-12-18T15:43:42;18.27;;;18.07;;
9270;SDS011;4673;53.458;9.940;2022-12-18T15:46:12;17.43;;;17.30;;
9270;SDS011;4673;53.458;9.940;2022-12-18T15:48:40;20.87;;;20.67;;
9270;SDS011;4673;53.458;9.940;2022-12-18T15:51:14;19.47;;;19.27;;
9270;SDS011;4673;53.458;9.940;2022-12-18T15:53:43;17.83;;;17.73;;
9270;SDS011;4673;53.458;9.940;2022-12-18T15:56:10;18.33;;;18.13;;
9270;SDS011;4673;53.458;9.940;2022-12-18T15:58:55;18.83;;;18.73;;
9270;SDS011;4673;53.458;9.940;2022-12-18T16:01:22;19.40;;;19.20;;
9270;SDS011;4673;53.458;9.940;2022-12-18T16:03:50;19.50;;;19.40;;
9270;SDS011;4673;53.458;9.940;2022-12-18T16:06:15;18.50;;;18.30;;
9270;SDS011;4673;53.458;9.940;2022-12-18T16:08:41;17.63;;;17.53;;
9270;SDS011;4673;53.458;9.940;2022-12-18T16:11:10;17.27;;;17.17;;
9270;SDS011;4673;53.458;9.940;2022-12-18T16:13:45;19.40;;;19.20;;
9270;SDS011;4673;53.458;9.940;2022-12-18T16:16:10;19.33;;;19.13;;
9270;SDS011;4673;53.458;9.940;2022-12-18T16:18:36;18.40;;;18.20;;
9270;SDS011;4673;53.458;9.940;2022-12-18T16:21:01;18.83;;;18.63;;
9270;SDS011;4673;53.458;9.940;2022-12-18T16:23:27;17.40;;;17.30;;
9270;SDS011;4673;53.458;9.940;2022-12-18T16:25:53;17.27;;;17.17;;
9270;SDS011;4673;53.458;9.940;2022-12-18T16:28:19;17.47;;;17.27;;
9270;SDS011;4673;53.458;9.940;2022-12-18T16:30:45;17.60;;;17.40;;
9270;SDS011;4673;53.458;9.940;2022-12-18T16:33:11;18.17;;;17.97;;
9270;SDS011;4673;53.458;9.940;2022-12-18T16:35:36;17.53;;;17.33;;
9270;SDS011;4673;53.458;9.940;2022-12-18T16:38:02;16.50;;;16.40;;
9270;SDS011;4673;53.458;9.940;2022-12-18T16:40:28;17.13;;;16.93;;
9270;SDS011;4673;53.458;9.940;2022-12-18T16:42:57;17.70;;;17.60;;
9270;SDS011;4673;53.458;9.940;2022-12-18T16:45:22;17.03;;;16.93;;
9270;SDS011;4673;53.458;9.940;2022-12-18T16:47:48;17.47;;;17.30;;
9270;SDS011;4673;53.458;9.940;2022-12-18T16:50:14;15.90;;;15.80;;
9270;SDS011;4673;53.458;9.940;2022-12-18T16:52:40;17.33;;;17.23;;
9270;SDS011;4673;53.458;9.940;2022-12-18T16:55:06;18.53;;;18.33;;
9270;SDS011;4673;53.458;9.940;2022-12-18T16:57:32;16.43;;;16.33;;
9270;SDS011;4673;53.458;9.940;2022-12-18T16:59:57;15.83;;;15.73;;
9270;SDS011;4673;53.458;9.940;2022-12-18T17:02:24;16.33;;;16.23;;
9270;SDS011;4673;53.458;9.940;2022-12-18T17:04:54;15.27;;;15.17;;
9270;SDS011;4673;53.458;9.940;2022-12-18T17:07:21;17.17;;;16.97;;
9270;SDS011;4673;53.458;9.940;2022-12-18T17:09:48;15.57;;;15.47;;
9270;SDS011;4673;53.458;9.940;2022-12-18T17:12:15;16.10;;;16.00;;
9270;SDS011;4673;53.458;9.940;2022-12-18T17:14:41;15.83;;;15.73;;
9270;SDS011;4673;53.458;9.940;2022-12-18T17:17:06;16.23;;;16.13;;
9270;SDS011;4673;53.458;9.940;2022-12-18T17:19:32;16.57;;;16.47;;
9270;SDS011;4673;53.458;9.940;2022-12-18T17:21:58;16.77;;;16.67;;
9270;SDS011;4673;53.458;9.940;2022-12-18T17:24:24;13.13;;;13.03;;
9270;SDS011;4673;53.458;9.940;2022-12-18T17:26:49;15.13;;;15.03;;
9270;SDS011;4673;53.458;9.940;2022-12-18T17:29:16;15.40;;;15.30;;
9270;SDS011;4673;53.458;9.940;2022-12-18T17:31:43;14.23;;;14.13;;
9270;SDS011;4673;53.458;9.940;2022-12-18T17:34:10;14.10;;;14.00;;
9270;SDS011;4673;53.458;9.940;2022-12-18T17:36:36;15.37;;;15.27;;
9270;SDS011;4673;53.458;9.940;2022-12-18T17:39:03;15.90;;;15.80;;
9270;SDS011;4673;53.458;9.940;2022-12-18T17:41:29;15.03;;;14.93;;
9270;SDS011;4673;53.458;9.940;2022-12-18T17:43:57;16.20;;;16.10;;
9270;SDS011;4673;53.458;9.940;2022-12-18T17:46:24;14.63;;;14.53;;
9270;SDS011;4673;53.458;9.940;2022-12-18T17:48:54;15.53;;;15.43;;
9270;SDS011;4673;53.458;9.940;2022-12-18T17:51:20;15.07;;;14.97;;
9270;SDS011;4673;53.458;9.940;2022-12-18T17:53:45;14.67;;;14.57;;
9270;SDS011;4673;53.458;9.940;2022-12-18T17:56:12;14.10;;;14.00;;
9270;SDS011;4673;53.458;9.940;2022-12-18T17:58:39;15.27;;;15.17;;
9270;SDS011;4673;53.458;9.940;2022-12-18T18:01:05;14.87;;;14.77;;
9270;SDS011;4673;53.458;9.940;2022-12-18T18:03:32;12.87;;;12.77;;
9270;SDS011;4673;53.458;9.940;2022-12-18T18:05:58;12.77;;;12.67;;
9270;SDS011;4673;53.458;9.940;2022-12-18T18:08:26;14.13;;;14.03;;
9270;SDS011;4673;53.458;9.940;2022-12-18T18:10:52;14.40;;;14.30;;
9270;SDS011;4673;53.458;9.940;2022-12-18T18:13:22;13.83;;;13.73;;
9270;SDS011;4673;53.458;9.940;2022-12-18T18:16:08;12.83;;;12.73;;
9270;SDS011;4673;53.458;9.940;2022-12-18T18:18:35;15.87;;;15.77;;
9270;SDS011;4673;53.458;9.940;2022-12-18T18:21:05;14.57;;;14.47;;